TimePDT,TemperatureF,Dew PointF,Humidity,Sea Level PressureIn,VisibilityMPH,Wind Direction,Wind SpeedMPH,Gust SpeedMPH,PrecipitationIn,Events,Conditions,WindDirDegrees,DateUTC
12:55 AM,46.9,30.9,54,29.94,10.0,West,8.1,-,N/A,,Clear,270,2013-03-27 07:55:00
1:55 AM,46.0,30.9,56,29.94,10.0,Calm,Calm,-,N/A,,Clear,0,2013-03-27 08:55:00
2:55 AM,45.0,30.9,58,29.94,10.0,Calm,Calm,-,N/A,,Scattered Clouds,0,2013-03-27 09:55:00
3:55 AM,44.1,32.0,63,29.94,10.0,West,6.9,-,N/A,,Mostly Cloudy,260,2013-03-27 10:55:00
4:55 AM,42.1,32.0,67,29.95,10.0,Calm,Calm,-,N/A,,Overcast,0,2013-03-27 11:55:00
5:55 AM,42.1,32.0,67,29.95,10.0,WSW,4.6,-,N/A,,Overcast,250,2013-03-27 12:55:00
6:55 AM,42.1,32.0,67,29.96,10.0,North,5.8,-,N/A,,Overcast,360,2013-03-27 13:55:00
7:55 AM,42.1,30.9,65,29.97,10.0,NW,5.8,-,N/A,,Partly Cloudy,310,2013-03-27 14:55:00
8:55 AM,45.0,32.0,60,29.98,10.0,Calm,Calm,-,N/A,,Overcast,0,2013-03-27 15:55:00
9:55 AM,46.0,30.9,56,29.99,10.0,West,4.6,-,0.00,,Overcast,280,2013-03-27 16:55:00
10:55 AM,46.9,32.0,56,29.99,10.0,SW,4.6,-,N/A,,Mostly Cloudy,230,2013-03-27 17:55:00
11:55 AM,51.1,30.9,46,29.98,10.0,Calm,Calm,-,N/A,,Overcast,0,2013-03-27 18:55:00
12:55 PM,55.0,30.9,40,29.97,10.0,Calm,Calm,-,N/A,,Overcast,0,2013-03-27 19:55:00
1:55 PM,55.9,30.0,37,29.96,10.0,Variable,3.5,-,N/A,,Overcast,0,2013-03-27 20:55:00
2:55 PM,55.9,30.0,37,29.96,10.0,ESE,6.9,-,N/A,,Overcast,120,2013-03-27 21:55:00
3:55 PM,54.0,35.1,49,29.97,10.0,ESE,5.8,-,0.00,,Overcast,120,2013-03-27 22:55:00
4:55 PM,55.9,33.1,42,29.97,10.0,Calm,Calm,-,N/A,,Overcast,0,2013-03-27 23:55:00
5:55 PM,55.9,33.1,42,29.96,10.0,Calm,Calm,-,N/A,,Partly Cloudy,0,2013-03-28 00:55:00
6:55 PM,53.1,33.1,47,29.96,10.0,WSW,3.5,-,N/A,,Clear,240,2013-03-28 01:55:00
7:55 PM,50.0,34.0,54,29.97,10.0,NNW,4.6,-,N/A,,Clear,330,2013-03-28 02:55:00
8:55 PM,48.0,33.1,56,29.99,10.0,Calm,Calm,-,N/A,,Clear,0,2013-03-28 03:55:00
9:55 PM,45.0,32.0,60,30.00,10.0,NNW,3.5,-,N/A,,Clear,330,2013-03-28 04:55:00
10:55 PM,46.9,33.1,59,30.00,10.0,NW,4.6,-,N/A,,Clear,310,2013-03-28 05:55:00
11:55 PM,44.1,32.0,63,30.01,10.0,North,5.8,-,N/A,,Clear,360,2013-03-28 06:55:00